Hume, California
Current Conditions -  °F | °C
As of 10:35 PM on Tuesday 27 Jan 2015 (Local Time) from KVIS Reporting Station
Clear Clear  
Wind Chill: 10°   Ceiling: Unl
Heat Index: 10°   Visibility: 8mi
Dew Point:   Wind: 5mph
Humidity: 82%   Direction: 360°N
Pressure: 30.23"   Gusts: NA
Location:  36.78°N, 118.91°W
Report Text: KVIS 280635Z AUTO 36004KT 8SM CLR 10/07 A3023 RMK AO1
Loading
Personal Weather Stations






























Interactive Weather Map New forecast layout! Learn more

10-Day Weather Forecast

Advertisements
Track Severe Weather on mobile